createdAt,value
2018-12-15T00:02:05.086Z,15.28
2018-12-15T00:04:37.821Z,15.80
2018-12-15T00:07:11.398Z,15.38
2018-12-15T00:09:42.344Z,14.05
2018-12-15T00:12:34.597Z,16.23
2018-12-15T00:15:09.049Z,14.78
2018-12-15T00:17:45.602Z,16.52
2018-12-15T00:20:16.977Z,15.48
2018-12-15T00:22:47.999Z,16.07
2018-12-15T00:25:18.903Z,16.75
2018-12-15T00:27:49.782Z,16.67
2018-12-15T00:30:21.521Z,15.58
2018-12-15T00:32:52.730Z,16.87
2018-12-15T00:35:23.685Z,15.75
2018-12-15T00:37:54.586Z,15.35
2018-12-15T00:40:26.802Z,15.38
2018-12-15T00:42:57.714Z,15.20
2018-12-15T00:45:28.655Z,15.05
2018-12-15T00:47:59.574Z,15.08
2018-12-15T00:50:30.849Z,15.78
2018-12-15T00:53:01.754Z,15.50
2018-12-15T00:55:32.729Z,15.45
2018-12-15T00:58:04.009Z,14.85
2018-12-15T01:00:34.991Z,14.60
2018-12-15T01:03:06.290Z,14.98
2018-12-15T01:05:37.177Z,15.20
2018-12-15T01:08:08.053Z,14.78
2018-12-15T01:10:38.974Z,12.95
2018-12-15T01:13:10.819Z,13.30
2018-12-15T01:15:46.861Z,13.50
2018-12-15T01:18:17.812Z,14.75
2018-12-15T01:20:48.773Z,14.35
2018-12-15T01:23:19.677Z,13.72
2018-12-15T01:25:50.940Z,13.62
2018-12-15T01:28:21.870Z,14.00
2018-12-15T01:30:52.836Z,13.90
2018-12-15T01:33:23.743Z,14.75
2018-12-15T01:35:54.677Z,14.40
2018-12-15T01:38:26.675Z,14.43
2018-12-15T01:40:58.266Z,14.25
2018-12-15T01:43:29.159Z,14.18
2018-12-15T01:46:00.045Z,15.48
2018-12-15T01:48:31.014Z,14.87
2018-12-15T01:51:02.654Z,13.40
2018-12-15T01:53:33.569Z,13.60
2018-12-15T01:56:04.630Z,13.45
2018-12-15T01:58:35.595Z,14.25
2018-12-15T02:01:06.435Z,14.38
2018-12-15T02:03:37.461Z,14.65
2018-12-15T02:06:08.402Z,14.03
2018-12-15T02:08:39.325Z,13.95
2018-12-15T02:11:12.008Z,13.28
2018-12-15T02:13:42.970Z,14.98
2018-12-15T02:16:14.789Z,14.43
2018-12-15T02:18:45.727Z,13.48
2018-12-15T02:21:16.703Z,14.25
2018-12-15T02:23:47.612Z,14.18
2018-12-15T02:26:18.561Z,15.30
2018-12-15T02:28:49.481Z,15.00
2018-12-15T02:31:20.599Z,13.45
2018-12-15T02:33:51.454Z,14.87
2018-12-15T02:36:22.370Z,12.93
2018-12-15T02:38:53.342Z,14.05
2018-12-15T02:41:24.215Z,13.48
2018-12-15T02:43:55.121Z,13.48
2018-12-15T02:46:26.252Z,13.70
2018-12-15T02:48:57.387Z,13.22
2018-12-15T02:51:28.336Z,13.43
2018-12-15T02:53:59.270Z,13.00
2018-12-15T02:56:30.219Z,12.70
2018-12-15T02:59:01.161Z,12.85
2018-12-15T03:01:32.131Z,13.32
2018-12-15T03:04:03.337Z,13.15
2018-12-15T03:06:34.278Z,12.50
2018-12-15T03:09:08.594Z,13.50
2018-12-15T03:11:40.567Z,14.20
2018-12-15T03:14:11.507Z,13.45
2018-12-15T03:16:58.393Z,13.45
2018-12-15T03:19:29.555Z,13.62
2018-12-15T03:22:01.015Z,13.75
2018-12-15T03:24:31.959Z,14.05
2018-12-15T03:27:02.953Z,13.95
2018-12-15T03:29:33.932Z,13.38
2018-12-15T03:32:06.322Z,13.60
2018-12-15T03:34:37.225Z,13.83
2018-12-15T03:37:08.179Z,13.88
2018-12-15T03:39:39.105Z,12.25
2018-12-15T03:42:10.059Z,12.23
2018-12-15T03:47:44.595Z,12.43
2018-12-15T03:50:15.501Z,13.22
2018-12-15T03:52:46.382Z,13.32
2018-12-15T03:55:17.374Z,13.55
2018-12-15T03:57:48.350Z,14.47
2018-12-15T04:00:19.699Z,12.93
2018-12-15T04:02:51.361Z,14.07
2018-12-15T04:05:22.281Z,14.28
2018-12-15T04:07:53.214Z,13.78
2018-12-15T04:10:24.151Z,14.68
2018-12-15T04:12:55.188Z,13.75
2018-12-15T04:15:38.441Z,13.62
2018-12-15T04:18:09.336Z,15.18
2018-12-15T04:20:42.348Z,13.83
2018-12-15T04:23:13.470Z,13.38
2018-12-15T04:25:44.616Z,14.35
2018-12-15T04:28:15.549Z,14.43
2018-12-15T04:30:46.508Z,14.47
2018-12-15T04:33:17.428Z,14.65
2018-12-15T04:35:48.694Z,15.45
2018-12-15T04:38:19.611Z,14.18
2018-12-15T04:40:50.773Z,14.25
2018-12-15T04:43:21.697Z,14.20
2018-12-15T04:45:52.649Z,16.10
2018-12-15T04:48:23.557Z,15.38
2018-12-15T04:50:54.417Z,14.03
2018-12-15T04:53:30.773Z,12.43
2018-12-15T04:56:01.705Z,14.85
2018-12-15T04:58:32.698Z,14.03
2018-12-15T05:01:03.755Z,13.28
2018-12-15T05:03:34.626Z,14.23
2018-12-15T05:06:05.882Z,13.80
2018-12-15T05:08:36.801Z,14.15
2018-12-15T05:11:07.665Z,13.38
2018-12-15T05:13:38.576Z,13.83
2018-12-15T05:16:09.958Z,14.78
2018-12-15T05:18:40.858Z,13.68
2018-12-15T05:21:11.801Z,13.78
2018-12-15T05:23:42.734Z,13.32
2018-12-15T05:26:13.690Z,14.35
2018-12-15T05:28:44.622Z,13.43
2018-12-15T05:31:15.590Z,14.03
2018-12-15T05:33:49.226Z,13.30
2018-12-15T05:36:20.123Z,13.65
2018-12-15T05:38:51.641Z,14.38
2018-12-15T05:41:22.601Z,14.33
2018-12-15T05:43:53.558Z,15.28
2018-12-15T05:46:25.017Z,13.62
2018-12-15T05:48:55.909Z,13.32
2018-12-15T05:51:26.870Z,13.70
2018-12-15T05:53:57.976Z,13.35
2018-12-15T05:56:28.933Z,13.25
2018-12-15T05:58:59.978Z,13.45
2018-12-15T06:01:30.923Z,13.80
2018-12-15T06:04:02.073Z,13.60
2018-12-15T06:06:33.004Z,13.65
2018-12-15T06:09:04.987Z,13.32
2018-12-15T06:11:36.929Z,15.63
2018-12-15T06:14:07.857Z,13.30
2018-12-15T06:16:38.719Z,13.85
2018-12-15T06:19:09.618Z,14.60
2018-12-15T06:21:40.561Z,14.15
2018-12-15T06:24:11.497Z,14.18
2018-12-15T06:26:42.449Z,14.78
2018-12-15T06:29:13.437Z,14.10
2018-12-15T06:31:44.614Z,15.00
2018-12-15T06:34:15.565Z,14.78
2018-12-15T06:36:46.425Z,14.73
2018-12-15T06:39:17.453Z,14.20
2018-12-15T06:41:49.677Z,15.15
2018-12-15T06:44:20.663Z,15.35
2018-12-15T06:46:51.568Z,15.00
2018-12-15T06:49:23.464Z,16.15
2018-12-15T06:51:54.401Z,15.30
2018-12-15T06:54:25.325Z,16.50
2018-12-15T06:56:56.275Z,15.25
2018-12-15T06:59:27.189Z,14.80
2018-12-15T07:01:58.130Z,15.40
2018-12-15T07:04:29.067Z,15.80
2018-12-15T07:07:00.009Z,16.87
2018-12-15T07:09:31.358Z,17.15
2018-12-15T07:12:03.278Z,16.35
2018-12-15T07:14:34.769Z,17.25
2018-12-15T07:17:05.709Z,17.10
2018-12-15T07:19:36.590Z,17.62
2018-12-15T07:22:07.482Z,16.50
2018-12-15T07:24:38.337Z,16.73
2018-12-15T07:27:09.229Z,18.07
2018-12-15T07:29:40.065Z,18.65
2018-12-15T07:32:10.918Z,18.62
2018-12-15T07:34:42.454Z,17.75
2018-12-15T07:37:13.334Z,18.90
2018-12-15T07:39:44.173Z,17.00
2018-12-15T07:42:15.098Z,18.30
2018-12-15T07:44:46.225Z,17.20
2018-12-15T07:47:17.605Z,16.93
2018-12-15T07:49:49.017Z,17.30
2018-12-15T07:52:20.393Z,19.05
2018-12-15T07:54:51.301Z,15.45
2018-12-15T07:57:22.265Z,17.15
2018-12-15T07:59:53.187Z,16.82
2018-12-15T08:02:24.120Z,17.10
2018-12-15T08:04:55.173Z,16.97
2018-12-15T08:07:27.292Z,17.07
2018-12-15T08:10:00.606Z,18.15
2018-12-15T08:15:27.685Z,17.14
2018-12-15T08:17:58.634Z,18.57
2018-12-15T08:20:29.497Z,18.07
2018-12-15T08:23:00.412Z,18.77
2018-12-15T08:25:31.365Z,18.20
2018-12-15T08:28:02.253Z,16.87
2018-12-15T08:30:33.601Z,18.25
2018-12-15T08:33:04.961Z,18.35
2018-12-15T08:35:35.914Z,17.10
2018-12-15T08:38:06.810Z,17.25
2018-12-15T08:40:37.816Z,18.60
2018-12-15T08:43:08.701Z,17.23
2018-12-15T08:45:39.678Z,18.35
2018-12-15T08:48:10.589Z,17.77
2018-12-15T08:50:42.982Z,18.75
2018-12-15T08:53:14.529Z,18.27
2018-12-15T08:55:46.022Z,18.02
2018-12-15T08:58:16.909Z,16.52
2018-12-15T09:00:47.877Z,17.37
2018-12-15T09:03:18.781Z,17.57
2018-12-15T09:05:49.730Z,17.80
2018-12-15T09:08:21.421Z,18.35
2018-12-15T09:11:19.651Z,18.17
2018-12-15T09:13:50.819Z,20.52
2018-12-15T09:16:26.382Z,18.95
2018-12-15T09:18:54.625Z,19.80
2018-12-15T09:21:25.562Z,17.90
2018-12-15T09:23:57.638Z,19.65
2018-12-15T09:26:28.673Z,18.65
2018-12-15T09:29:00.747Z,18.65
2018-12-15T09:31:31.650Z,18.95
2018-12-15T09:34:02.629Z,19.35
2018-12-15T09:36:33.940Z,19.23
2018-12-15T09:39:07.591Z,19.90
2018-12-15T09:41:38.514Z,19.60
2018-12-15T09:44:10.061Z,18.62
2018-12-15T09:46:40.990Z,17.20
2018-12-15T09:49:17.845Z,18.77
2018-12-15T09:51:46.164Z,18.30
2018-12-15T09:54:17.903Z,18.77
2018-12-15T09:56:49.337Z,18.15
2018-12-15T09:59:20.304Z,18.95
2018-12-15T10:01:51.337Z,18.62
2018-12-15T10:04:22.693Z,17.85
2018-12-15T10:06:53.629Z,17.50
2018-12-15T10:09:24.629Z,17.92
2018-12-15T10:11:55.710Z,19.32
2018-12-15T10:14:26.928Z,17.87
2018-12-15T10:16:57.813Z,19.60
2018-12-15T10:19:28.705Z,18.62
2018-12-15T10:21:59.766Z,19.73
2018-12-15T10:24:30.671Z,19.55
2018-12-15T10:27:01.634Z,20.55
2018-12-15T10:29:37.703Z,19.90
2018-12-15T10:32:13.863Z,19.30
2018-12-15T10:34:44.789Z,18.27
2018-12-15T10:37:16.853Z,19.40
2018-12-15T10:39:47.806Z,20.27
2018-12-15T10:42:18.758Z,18.60
2018-12-15T10:44:49.655Z,19.15
2018-12-15T10:47:20.621Z,17.90
2018-12-15T10:49:53.374Z,18.57
2018-12-15T10:52:26.075Z,19.07
2018-12-15T10:54:56.915Z,19.17
2018-12-15T10:57:28.051Z,18.15
2018-12-15T10:59:58.952Z,18.17
2018-12-15T11:02:29.941Z,18.35
2018-12-15T11:05:00.893Z,20.45
2018-12-15T11:07:31.815Z,17.60
2018-12-15T11:10:02.673Z,18.90
2018-12-15T11:12:34.771Z,18.12
2018-12-15T11:15:07.870Z,17.70
2018-12-15T11:17:38.765Z,18.50
2018-12-15T11:20:10.893Z,19.65
2018-12-15T11:22:41.820Z,18.52
2018-12-15T11:25:12.680Z,18.62
2018-12-15T11:27:43.606Z,19.40
2018-12-15T11:30:15.551Z,19.40
2018-12-15T11:32:46.525Z,19.95
2018-12-15T11:35:17.439Z,19.50
2018-12-15T11:37:48.489Z,20.35
2018-12-15T11:40:19.638Z,20.65
2018-12-15T11:42:52.047Z,19.32
2018-12-15T11:45:22.931Z,19.25
2018-12-15T11:47:53.792Z,19.85
2018-12-15T11:50:29.571Z,19.82
2018-12-15T11:53:00.872Z,20.60
2018-12-15T11:55:32.217Z,19.37
2018-12-15T11:58:03.882Z,19.80
2018-12-15T12:00:35.109Z,19.90
2018-12-15T12:03:06.066Z,19.65
2018-12-15T12:05:38.012Z,21.42
2018-12-15T12:08:10.031Z,23.10
2018-12-15T12:10:40.897Z,19.02
2018-12-15T12:13:12.881Z,20.57
2018-12-15T12:15:43.793Z,19.30
2018-12-15T12:18:14.836Z,20.00
2018-12-15T12:20:46.775Z,18.85
2018-12-15T12:23:17.865Z,19.92
2018-12-15T12:25:50.501Z,18.87
2018-12-15T12:28:23.212Z,18.80
2018-12-15T12:30:54.130Z,18.25
2018-12-15T12:33:25.757Z,18.80
2018-12-15T12:35:56.817Z,20.25
2018-12-15T12:38:27.908Z,19.82
2018-12-15T12:40:58.805Z,20.40
2018-12-15T12:43:29.780Z,19.10
2018-12-15T12:46:00.661Z,19.35
2018-12-15T12:48:31.581Z,19.42
2018-12-15T12:51:02.479Z,20.48
2018-12-15T12:53:34.550Z,20.35
2018-12-15T12:56:05.690Z,18.85
2018-12-15T12:58:36.736Z,18.75
2018-12-15T13:01:07.675Z,19.82
2018-12-15T13:03:39.022Z,17.73
2018-12-15T13:06:09.913Z,17.90
2018-12-15T13:08:40.943Z,18.40
2018-12-15T13:11:13.043Z,19.98
2018-12-15T13:13:44.011Z,18.90
2018-12-15T13:16:14.907Z,20.00
2018-12-15T13:18:45.820Z,18.67
2018-12-15T13:21:16.688Z,19.55
2018-12-15T13:23:47.713Z,17.48
2018-12-15T13:26:18.669Z,17.75
2018-12-15T13:28:49.707Z,18.00
2018-12-15T13:31:20.753Z,17.82
2018-12-15T13:33:51.700Z,17.85
2018-12-15T13:36:22.614Z,20.00
2018-12-15T13:38:53.464Z,19.20
2018-12-15T13:41:24.378Z,18.12
2018-12-15T13:43:55.294Z,19.37
2018-12-15T13:46:26.181Z,18.00
2018-12-15T13:49:00.664Z,18.40
2018-12-15T13:54:42.419Z,17.75
2018-12-15T13:57:13.451Z,17.52
2018-12-15T13:59:45.764Z,17.45
2018-12-15T14:02:18.132Z,18.10
2018-12-15T14:04:49.030Z,18.42
2018-12-15T14:07:19.934Z,17.90
2018-12-15T14:09:51.018Z,18.17
2018-12-15T14:12:21.941Z,16.67
2018-12-15T14:14:53.095Z,16.67
2018-12-15T14:17:23.969Z,18.57
2018-12-15T14:19:54.865Z,18.00
2018-12-15T14:22:27.846Z,18.35
2018-12-15T14:24:58.753Z,18.12
2018-12-15T14:27:30.730Z,17.75
2018-12-15T14:30:01.664Z,17.75
2018-12-15T14:32:33.689Z,19.55
2018-12-15T14:35:07.055Z,17.40
2018-12-15T14:37:38.810Z,17.92
2018-12-15T14:40:11.065Z,16.80
2018-12-15T14:42:41.940Z,17.20
2018-12-15T14:45:14.693Z,18.50
2018-12-15T14:47:47.372Z,16.75
2018-12-15T14:50:23.376Z,18.60
2018-12-15T14:52:51.189Z,17.02
2018-12-15T14:55:22.209Z,17.30
2018-12-15T14:57:53.882Z,16.90
2018-12-15T15:00:24.818Z,16.48
2018-12-15T15:02:59.486Z,19.17
2018-12-15T15:05:30.387Z,19.02
2018-12-15T15:08:01.430Z,19.40
2018-12-15T15:13:17.531Z,17.15
2018-12-15T15:15:48.411Z,18.23
2018-12-15T15:18:19.419Z,16.12
2018-12-15T15:20:50.294Z,17.32
2018-12-15T15:23:21.626Z,16.32
2018-12-15T15:25:52.493Z,16.87
2018-12-15T15:28:23.565Z,15.90
2018-12-15T15:30:54.423Z,16.25
2018-12-15T15:33:25.542Z,17.17
2018-12-15T15:35:56.502Z,17.80
2018-12-15T15:38:27.856Z,18.15
2018-12-15T15:41:00.095Z,16.97
2018-12-15T15:43:31.046Z,16.95
2018-12-15T15:46:01.935Z,16.00
2018-12-15T15:48:32.858Z,16.40
2018-12-15T15:51:03.786Z,17.57
2018-12-15T15:53:35.737Z,17.32
2018-12-15T15:56:06.677Z,15.85
2018-12-15T15:58:37.536Z,16.07
2018-12-15T16:01:08.495Z,15.75
2018-12-15T16:03:39.407Z,16.65
2018-12-15T16:06:12.159Z,16.35
2018-12-15T16:08:43.287Z,15.13
2018-12-15T16:11:14.223Z,15.78
2018-12-15T16:13:45.113Z,16.20
2018-12-15T16:16:32.506Z,14.85
2018-12-15T16:19:03.969Z,17.10
2018-12-15T16:21:36.701Z,16.00
2018-12-15T16:24:07.866Z,16.60
2018-12-15T16:26:38.790Z,16.17
2018-12-15T16:29:09.716Z,16.67
2018-12-15T16:31:40.685Z,17.00
2018-12-15T16:34:11.605Z,16.30
2018-12-15T16:36:42.571Z,17.23
2018-12-15T16:39:13.482Z,17.15
2018-12-15T16:41:45.148Z,16.87
2018-12-15T16:44:16.066Z,16.70
2018-12-15T16:46:47.055Z,15.70
2018-12-15T16:49:17.938Z,16.45
2018-12-15T16:51:48.869Z,15.25
2018-12-15T16:54:20.126Z,17.23
2018-12-15T16:56:51.381Z,17.07
2018-12-15T16:59:22.326Z,16.12
2018-12-15T17:01:53.222Z,15.48
2018-12-15T17:04:24.098Z,15.58
2018-12-15T17:06:54.966Z,16.40
2018-12-15T17:09:25.876Z,16.27
2018-12-15T17:11:56.802Z,16.85
2018-12-15T17:14:27.706Z,17.25
2018-12-15T17:16:58.609Z,16.75
2018-12-15T17:19:29.534Z,17.12
2018-12-15T17:22:00.438Z,16.85
2018-12-15T17:24:31.513Z,16.37
2018-12-15T17:27:02.401Z,16.55
2018-12-15T17:29:34.402Z,16.02
2018-12-15T17:32:05.833Z,16.23
2018-12-15T17:34:36.806Z,16.25
2018-12-15T17:37:09.604Z,16.10
2018-12-15T17:39:40.660Z,15.20
2018-12-15T17:42:11.629Z,15.90
2018-12-15T17:44:44.093Z,16.27
2018-12-15T17:47:15.369Z,15.50
2018-12-15T17:49:47.396Z,16.80
2018-12-15T17:52:20.417Z,15.48
2018-12-15T17:54:52.031Z,15.60
2018-12-15T17:57:22.937Z,15.35
2018-12-15T17:59:53.986Z,16.90
2018-12-15T18:02:24.879Z,15.30
2018-12-15T18:04:55.829Z,15.38
2018-12-15T18:07:26.749Z,15.30
2018-12-15T18:09:58.209Z,15.53
2018-12-15T18:12:29.979Z,15.00
2018-12-15T18:15:00.852Z,14.58
2018-12-15T18:17:31.838Z,15.28
2018-12-15T18:20:02.881Z,16.50
2018-12-15T18:22:33.816Z,14.68
2018-12-15T18:25:05.911Z,14.95
2018-12-15T18:27:37.145Z,15.10
2018-12-15T18:30:11.763Z,14.05
2018-12-15T18:32:42.894Z,15.38
2018-12-15T18:35:14.234Z,16.63
2018-12-15T18:37:45.122Z,13.90
2018-12-15T18:40:16.005Z,13.62
2018-12-15T18:42:46.933Z,13.45
2018-12-15T18:45:17.850Z,13.90
2018-12-15T18:47:49.030Z,11.78
2018-12-15T18:50:19.962Z,12.68
2018-12-15T18:52:51.214Z,11.48
2018-12-15T18:55:23.161Z,13.15
2018-12-15T18:57:54.085Z,11.25
2018-12-15T19:00:25.232Z,12.50
2018-12-15T19:02:56.073Z,12.60
2018-12-15T19:05:26.975Z,13.18
2018-12-15T19:07:57.899Z,13.10
2018-12-15T19:10:28.850Z,12.43
2018-12-15T19:12:59.750Z,12.25
2018-12-15T19:15:30.668Z,12.33
2018-12-15T19:18:01.581Z,11.28
2018-12-15T19:20:32.609Z,11.60
2018-12-15T19:23:04.064Z,12.55
2018-12-15T19:25:35.074Z,11.40
2018-12-15T19:28:06.435Z,13.18
2018-12-15T19:30:37.369Z,12.55
2018-12-15T19:33:08.283Z,11.70
2018-12-15T19:35:39.189Z,12.82
2018-12-15T19:38:10.061Z,12.37
2018-12-15T19:40:40.909Z,12.13
2018-12-15T19:43:11.935Z,12.37
2018-12-15T19:45:42.945Z,12.10
2018-12-15T19:48:13.861Z,12.78
2018-12-15T19:50:44.785Z,12.37
2018-12-15T19:53:16.284Z,13.13
2018-12-15T19:55:47.141Z,13.25
2018-12-15T19:58:18.093Z,13.45
2018-12-15T20:00:48.991Z,12.18
2018-12-15T20:03:21.055Z,12.88
2018-12-15T20:05:52.208Z,13.05
2018-12-15T20:08:23.153Z,13.68
2018-12-15T20:10:54.366Z,12.18
2018-12-15T20:13:26.458Z,12.75
2018-12-15T20:15:57.384Z,13.78
2018-12-15T20:18:28.865Z,13.75
2018-12-15T20:20:59.895Z,14.55
2018-12-15T20:23:32.162Z,13.80
2018-12-15T20:26:03.204Z,14.40
2018-12-15T20:28:34.094Z,14.13
2018-12-15T20:31:06.195Z,14.15
2018-12-15T20:33:37.724Z,14.93
2018-12-15T20:36:09.024Z,14.38
2018-12-15T20:38:40.269Z,13.62
2018-12-15T20:41:11.237Z,14.78
2018-12-15T20:43:42.405Z,13.80
2018-12-15T20:46:13.366Z,15.68
2018-12-15T20:48:44.218Z,15.45
2018-12-15T20:51:15.548Z,14.83
2018-12-15T20:53:46.511Z,14.45
2018-12-15T20:56:17.485Z,13.48
2018-12-15T20:58:48.848Z,14.65
2018-12-15T21:01:20.168Z,14.85
2018-12-15T21:03:51.073Z,15.65
2018-12-15T21:06:22.093Z,16.70
2018-12-15T21:08:53.007Z,15.68
2018-12-15T21:11:24.301Z,15.10
2018-12-15T21:13:55.525Z,16.15
2018-12-15T21:16:26.417Z,15.40
2018-12-15T21:18:57.699Z,17.10
2018-12-15T21:21:28.554Z,13.95
2018-12-15T21:23:59.717Z,15.53
2018-12-15T21:26:30.646Z,17.98
2018-12-15T21:29:01.518Z,15.03
2018-12-15T21:31:32.433Z,14.30
2018-12-15T21:34:07.833Z,17.32
2018-12-15T21:36:36.223Z,14.70
2018-12-15T21:39:08.754Z,13.45
2018-12-15T21:41:41.454Z,15.40
2018-12-15T21:44:12.340Z,14.47
2018-12-15T21:46:43.228Z,14.83
2018-12-15T21:49:14.134Z,15.70
2018-12-15T21:51:45.025Z,15.35
2018-12-15T21:54:16.166Z,15.60
2018-12-15T21:56:47.297Z,16.45
2018-12-15T21:59:18.178Z,16.90
2018-12-15T22:01:49.275Z,17.87
2018-12-15T22:04:20.153Z,18.92
2018-12-15T22:06:51.047Z,15.60
2018-12-15T22:09:21.974Z,17.10
2018-12-15T22:11:54.887Z,19.70
2018-12-15T22:14:25.970Z,16.15
2018-12-15T22:16:58.197Z,18.65
2018-12-15T22:19:30.362Z,17.20
2018-12-15T22:22:03.198Z,20.08
2018-12-15T22:24:34.562Z,16.52
2018-12-15T22:27:05.455Z,18.65
2018-12-15T22:29:36.347Z,20.95
2018-12-15T22:32:07.343Z,20.55
2018-12-15T22:34:38.318Z,18.25
2018-12-15T22:37:09.475Z,19.50
2018-12-15T22:39:41.933Z,17.27
2018-12-15T22:42:14.539Z,16.07
2018-12-15T22:44:45.435Z,17.27
2018-12-15T22:47:16.397Z,19.60
2018-12-15T22:49:47.339Z,16.95
2018-12-15T22:52:18.274Z,16.62
2018-12-15T22:54:49.326Z,20.48
2018-12-15T22:57:20.762Z,17.80
2018-12-15T22:59:51.818Z,20.17
2018-12-15T23:02:22.746Z,20.57
2018-12-15T23:04:55.029Z,22.48
2018-12-15T23:07:26.245Z,18.37
2018-12-15T23:09:58.215Z,17.32
2018-12-15T23:12:29.662Z,16.30
2018-12-15T23:15:00.901Z,20.20
2018-12-15T23:17:31.836Z,17.00
2018-12-15T23:20:02.684Z,17.17
2018-12-15T23:22:33.623Z,15.80
2018-12-15T23:25:05.161Z,16.60
2018-12-15T23:27:36.175Z,16.57
2018-12-15T23:30:09.041Z,15.98
2018-12-15T23:32:40.041Z,16.82
2018-12-15T23:35:10.902Z,17.07
2018-12-15T23:37:42.350Z,16.35
2018-12-15T23:40:13.359Z,16.65
2018-12-15T23:42:44.642Z,18.02
2018-12-15T23:45:15.532Z,18.52
2018-12-15T23:47:47.198Z,17.25
2018-12-15T23:50:18.118Z,17.00
2018-12-15T23:52:49.082Z,17.10
2018-12-15T23:55:20.912Z,17.00
2018-12-15T23:57:52.083Z,15.53
